SBI764 UIII-UZTT
Flight info
| Callsign | SBI764 |
|---|---|
| Flight time | N/A |
| Altitude | 36000 |
| Route | BD5W/30 BD4D BD M99 BOKIS L135 AGZ Z584 LIPSI M618 UMLOD L143 TISIB TISIB1Z |
| Aircraft | A320/M-SDE2E3FGHIRWXY/LB1 |
Departure
| Time | 2026-05-09 13:08 |
|---|---|
| Airport | Irkutsk International Airport (UIII) |
Arrival
| Time | N/A |
|---|---|
| Airport | Tashkent International Airport (UZTT) |
| Time | Latitude | Longitude | Altitude | Speed | Heading |
|---|---|---|---|---|---|
| 2026-05-09 12:49 | 52.27182 | 104.36507 | 1681 ft | 0 kts | 202° |
| 2026-05-09 13:02 | 52.27181 | 104.36507 | 1681 ft | 0 kts | 202° |
| 2026-05-09 13:02 | 52.27174 | 104.36502 | 1681 ft | 1 kts | 202° |
| 2026-05-09 13:02 | 52.27147 | 104.36493 | 1681 ft | 7 kts | 174° |
| 2026-05-09 13:03 | 52.27099 | 104.36610 | 1681 ft | 17 kts | 109° |
| 2026-05-09 13:03 | 52.27058 | 104.36813 | 1681 ft | 18 kts | 107° |
| 2026-05-09 13:03 | 52.27023 | 104.37011 | 1681 ft | 18 kts | 104° |
| 2026-05-09 13:03 | 52.26999 | 104.37248 | 1681 ft | 25 kts | 90° |
| 2026-05-09 13:04 | 52.26916 | 104.37579 | 1681 ft | 35 kts | 115° |
| 2026-05-09 13:04 | 52.26828 | 104.37947 | 1681 ft | 33 kts | 109° |
| 2026-05-09 13:04 | 52.26736 | 104.38237 | 1681 ft | 23 kts | 110° |
| 2026-05-09 13:04 | 52.26643 | 104.38631 | 1681 ft | 54 kts | 111° |
| 2026-05-09 13:05 | 52.26497 | 104.39187 | 1681 ft | 51 kts | 110° |
| 2026-05-09 13:05 | 52.26356 | 104.39698 | 1681 ft | 47 kts | 115° |
| 2026-05-09 13:05 | 52.26230 | 104.40186 | 1681 ft | 46 kts | 113° |
| 2026-05-09 13:05 | 52.26099 | 104.40674 | 1682 ft | 46 kts | 113° |
| 2026-05-09 13:06 | 52.25982 | 104.41045 | 1682 ft | 20 kts | 105° |
| 2026-05-09 13:06 | 52.26043 | 104.41200 | 1682 ft | 12 kts | 27° |
| 2026-05-09 13:06 | 52.26057 | 104.41215 | 1682 ft | 1 kts | 48° |
| 2026-05-09 13:06 | 52.26061 | 104.41225 | 1682 ft | 0 kts | 66° |
| 2026-05-09 13:07 | 52.26065 | 104.41228 | 1682 ft | 2 kts | 19° |
| 2026-05-09 13:07 | 52.26114 | 104.41254 | 1682 ft | 10 kts | 20° |
| 2026-05-09 13:07 | 52.26177 | 104.41309 | 1682 ft | 11 kts | 26° |
| 2026-05-09 13:07 | 52.26287 | 104.41070 | 1682 ft | 60 kts | 291° |
| 2026-05-09 13:08 | 52.26557 | 104.40048 | 1682 ft | 131 kts | 293° |
| 2026-05-09 13:08 | 52.26985 | 104.38395 | 1831 ft | 172 kts | 297° |
| 2026-05-09 13:08 | 52.27460 | 104.36536 | 2460 ft | 179 kts | 296° |
| 2026-05-09 13:08 | 52.27839 | 104.34628 | 3173 ft | 178 kts | 286° |
| 2026-05-09 13:09 | 52.28074 | 104.32613 | 3696 ft | 185 kts | 286° |
| 2026-05-09 13:09 | 52.28371 | 104.30466 | 4085 ft | 200 kts | 286° |
| 2026-05-09 13:09 | 52.28700 | 104.28154 | 4471 ft | 217 kts | 286° |
| 2026-05-09 13:09 | 52.29075 | 104.25575 | 4819 ft | 240 kts | 286° |
| 2026-05-09 13:10 | 52.29478 | 104.22835 | 5285 ft | 256 kts | 285° |
| 2026-05-09 13:10 | 52.29908 | 104.19892 | 5801 ft | 270 kts | 284° |
| 2026-05-09 13:10 | 52.30344 | 104.16872 | 6557 ft | 274 kts | 283° |
| 2026-05-09 13:10 | 52.30778 | 104.13854 | 7313 ft | 276 kts | 284° |
| 2026-05-09 13:11 | 52.31219 | 104.10781 | 8016 ft | 276 kts | 284° |
| 2026-05-09 13:11 | 52.31665 | 104.07707 | 8660 ft | 279 kts | 284° |
| 2026-05-09 13:11 | 52.32114 | 104.04618 | 9311 ft | 281 kts | 285° |
| 2026-05-09 13:11 | 52.32572 | 104.01469 | 10031 ft | 283 kts | 285° |
| 2026-05-09 13:12 | 52.33035 | 103.98283 | 10561 ft | 293 kts | 285° |
| 2026-05-09 13:12 | 52.33522 | 103.94917 | 10935 ft | 310 kts | 285° |
| 2026-05-09 13:12 | 52.34034 | 103.91379 | 11299 ft | 325 kts | 285° |
| 2026-05-09 13:12 | 52.34566 | 103.87667 | 11583 ft | 340 kts | 284° |
| 2026-05-09 13:13 | 52.35127 | 103.83734 | 11879 ft | 353 kts | 285° |
| 2026-05-09 13:13 | 52.35697 | 103.79744 | 12360 ft | 361 kts | 285° |
| 2026-05-09 13:13 | 52.36264 | 103.75764 | 13016 ft | 362 kts | 285° |
| 2026-05-09 13:13 | 52.36833 | 103.71767 | 13663 ft | 363 kts | 285° |
| 2026-05-09 13:14 | 52.37405 | 103.67731 | 14259 ft | 366 kts | 285° |
| 2026-05-09 13:14 | 52.37978 | 103.63675 | 14817 ft | 367 kts | 285° |
| 2026-05-09 13:16 | 52.42124 | 103.34098 | 18651 ft | 393 kts | 284° |
| 2026-05-09 13:16 | 52.42730 | 103.29703 | 19165 ft | 396 kts | 284° |
| 2026-05-09 13:16 | 52.43340 | 103.25242 | 19661 ft | 400 kts | 283° |
| 2026-05-09 13:16 | 52.43837 | 103.20682 | 19917 ft | 402 kts | 279° |
| 2026-05-09 13:17 | 52.44123 | 103.16128 | 19958 ft | 401 kts | 275° |
| 2026-05-09 13:17 | 52.44200 | 103.11568 | 20061 ft | 405 kts | 272° |
| 2026-05-09 13:17 | 52.44207 | 103.06911 | 20569 ft | 407 kts | 272° |
| 2026-05-09 13:17 | 52.44204 | 103.02227 | 21119 ft | 407 kts | 272° |
| 2026-05-09 13:18 | 52.44199 | 102.97588 | 21547 ft | 410 kts | 272° |
| 2026-05-09 13:18 | 52.44194 | 102.92883 | 21949 ft | 413 kts | 272° |
| 2026-05-09 13:18 | 52.44186 | 102.88144 | 22354 ft | 416 kts | 272° |
| 2026-05-09 13:18 | 52.44176 | 102.83366 | 22797 ft | 419 kts | 272° |
| 2026-05-09 13:19 | 52.44165 | 102.78604 | 23231 ft | 421 kts | 272° |
| 2026-05-09 13:19 | 52.44151 | 102.73739 | 23662 ft | 424 kts | 273° |
| 2026-05-09 13:19 | 52.44136 | 102.68858 | 24078 ft | 426 kts | 273° |
| 2026-05-09 13:19 | 52.44119 | 102.64000 | 24472 ft | 429 kts | 273° |
| 2026-05-09 13:20 | 52.44100 | 102.59055 | 24862 ft | 431 kts | 273° |
| 2026-05-09 13:20 | 52.44079 | 102.54111 | 25245 ft | 433 kts | 273° |
| 2026-05-09 13:20 | 52.44056 | 102.49107 | 25615 ft | 436 kts | 273° |
| 2026-05-09 13:20 | 52.44030 | 102.44122 | 25973 ft | 438 kts | 273° |
| 2026-05-09 13:21 | 52.44002 | 102.39146 | 26325 ft | 440 kts | 273° |
| 2026-05-09 13:21 | 52.43972 | 102.34083 | 26656 ft | 441 kts | 272° |
| 2026-05-09 13:21 | 52.43939 | 102.29006 | 26965 ft | 443 kts | 272° |
| 2026-05-09 13:21 | 52.43905 | 102.23862 | 27268 ft | 445 kts | 272° |
| 2026-05-09 13:22 | 52.43855 | 102.17056 | 27666 ft | 447 kts | 273° |
| 2026-05-09 13:22 | 52.43829 | 102.13677 | 27900 ft | 447 kts | 273° |
| 2026-05-09 13:22 | 52.43787 | 102.08504 | 28289 ft | 446 kts | 273° |
| 2026-05-09 13:23 | 52.43598 | 101.88139 | 29767 ft | 441 kts | 273° |
| 2026-05-09 13:23 | 52.43547 | 101.83106 | 30162 ft | 440 kts | 273° |
| 2026-05-09 13:24 | 52.43493 | 101.78112 | 30569 ft | 439 kts | 273° |
| 2026-05-09 13:24 | 52.43438 | 101.73094 | 30975 ft | 437 kts | 273° |
| 2026-05-09 13:24 | 52.43380 | 101.68117 | 31362 ft | 436 kts | 273° |
| 2026-05-09 13:24 | 52.43322 | 101.63171 | 31727 ft | 434 kts | 273° |
| 2026-05-09 13:25 | 52.43260 | 101.58172 | 32090 ft | 433 kts | 274° |
| 2026-05-09 13:25 | 52.43198 | 101.53269 | 32445 ft | 431 kts | 274° |
| 2026-05-09 13:25 | 52.43066 | 101.43386 | 33111 ft | 427 kts | 274° |
| 2026-05-09 13:26 | 52.42997 | 101.38460 | 33410 ft | 426 kts | 274° |
| 2026-05-09 13:26 | 52.42928 | 101.33563 | 33698 ft | 426 kts | 273° |
| 2026-05-09 13:26 | 52.42858 | 101.28738 | 33945 ft | 426 kts | 273° |
| 2026-05-09 13:26 | 52.42784 | 101.23809 | 34149 ft | 426 kts | 273° |
| 2026-05-09 13:27 | 52.42709 | 101.18919 | 34338 ft | 427 kts | 273° |
| 2026-05-09 13:27 | 52.42632 | 101.14065 | 34529 ft | 427 kts | 272° |
| 2026-05-09 13:27 | 52.42551 | 101.09161 | 34701 ft | 427 kts | 272° |
| 2026-05-09 13:27 | 52.42468 | 101.04245 | 34841 ft | 428 kts | 272° |
| 2026-05-09 13:28 | 52.42383 | 100.99354 | 34969 ft | 428 kts | 272° |
| 2026-05-09 13:28 | 52.42297 | 100.94476 | 35070 ft | 429 kts | 272° |
| 2026-05-09 13:28 | 52.42207 | 100.89528 | 35065 ft | 429 kts | 272° |
| 2026-05-09 13:29 | 52.42024 | 100.79734 | 34975 ft | 429 kts | 272° |
| 2026-05-09 13:29 | 52.41831 | 100.69920 | 34823 ft | 428 kts | 272° |
| 2026-05-09 13:30 | 52.41630 | 100.60098 | 34637 ft | 429 kts | 272° |
| 2026-05-09 13:30 | 52.41422 | 100.50275 | 34476 ft | 430 kts | 272° |
| 2026-05-09 13:31 | 52.41205 | 100.40409 | 34359 ft | 430 kts | 272° |
| 2026-05-09 13:31 | 52.40978 | 100.30496 | 34304 ft | 431 kts | 271° |
| 2026-05-09 13:32 | 52.40743 | 100.20607 | 34286 ft | 432 kts | 271° |
| 2026-05-09 13:32 | 52.40374 | 100.05735 | 34384 ft | 433 kts | 271° |
| 2026-05-09 13:33 | 52.40115 | 99.95789 | 34461 ft | 433 kts | 271° |
| 2026-05-09 13:33 | 52.39849 | 99.85832 | 34490 ft | 433 kts | 271° |
| 2026-05-09 13:34 | 52.39577 | 99.75938 | 34481 ft | 433 kts | 271° |
| 2026-05-09 13:34 | 52.39295 | 99.66021 | 34404 ft | 433 kts | 271° |
| 2026-05-09 13:35 | 52.39006 | 99.56149 | 34332 ft | 433 kts | 271° |
| 2026-05-09 13:35 | 52.38708 | 99.46259 | 34288 ft | 432 kts | 271° |
| 2026-05-09 13:36 | 52.38403 | 99.36346 | 34283 ft | 432 kts | 271° |
| 2026-05-09 13:36 | 52.38090 | 99.26487 | 34305 ft | 431 kts | 270° |
| 2026-05-09 13:37 | 52.37767 | 99.16541 | 34285 ft | 431 kts | 271° |
| 2026-05-09 13:37 | 52.37439 | 99.06747 | 34213 ft | 430 kts | 270° |
| 2026-05-09 13:38 | 52.37121 | 98.96927 | 34135 ft | 430 kts | 271° |
| 2026-05-09 13:38 | 52.36901 | 98.87099 | 34108 ft | 429 kts | 272° |
| 2026-05-09 13:39 | 52.36680 | 98.77274 | 34133 ft | 429 kts | 272° |
| 2026-05-09 13:39 | 52.36445 | 98.67442 | 34190 ft | 428 kts | 272° |
| 2026-05-09 13:40 | 52.36201 | 98.57679 | 34234 ft | 427 kts | 272° |
| 2026-05-09 13:40 | 52.35949 | 98.47907 | 34278 ft | 427 kts | 272° |
| 2026-05-09 13:41 | 52.35687 | 98.38116 | 34319 ft | 426 kts | 272° |
| 2026-05-09 13:41 | 52.35417 | 98.28352 | 34448 ft | 426 kts | 271° |
| 2026-05-09 13:42 | 52.35141 | 98.18597 | 34639 ft | 426 kts | 271° |
| 2026-05-09 13:42 | 52.35000 | 98.13750 | 34759 ft | 426 kts | 271° |
| 2026-05-09 13:42 | 52.34861 | 98.09051 | 34867 ft | 426 kts | 271° |
| 2026-05-09 13:43 | 52.34717 | 98.04211 | 34972 ft | 425 kts | 271° |
| 2026-05-09 13:43 | 52.34567 | 97.99282 | 35074 ft | 425 kts | 271° |
| 2026-05-09 13:43 | 52.34271 | 97.89621 | 35143 ft | 424 kts | 271° |
| 2026-05-09 13:44 | 52.33963 | 97.79897 | 35071 ft | 424 kts | 271° |
| 2026-05-09 13:44 | 52.33649 | 97.70201 | 34951 ft | 423 kts | 271° |
| 2026-05-09 13:45 | 52.33328 | 97.60551 | 35027 ft | 423 kts | 271° |
| 2026-05-09 13:45 | 52.33001 | 97.50938 | 35172 ft | 423 kts | 271° |
| 2026-05-09 13:46 | 52.32663 | 97.41253 | 35329 ft | 423 kts | 271° |
| 2026-05-09 13:46 | 52.32319 | 97.31643 | 35478 ft | 423 kts | 270° |
| 2026-05-09 13:47 | 52.31967 | 97.22022 | 35581 ft | 423 kts | 270° |
| 2026-05-09 13:47 | 52.31605 | 97.12357 | 35584 ft | 422 kts | 270° |
| 2026-05-09 13:48 | 52.31239 | 97.02779 | 35545 ft | 421 kts | 270° |
| 2026-05-09 13:48 | 52.30864 | 96.93151 | 35512 ft | 421 kts | 270° |
| 2026-05-09 13:49 | 52.30482 | 96.83569 | 35552 ft | 421 kts | 270° |
| 2026-05-09 13:49 | 52.30092 | 96.73982 | 35614 ft | 421 kts | 269° |
| 2026-05-09 13:50 | 52.29693 | 96.64367 | 35695 ft | 421 kts | 269° |
| 2026-05-09 13:50 | 52.29301 | 96.55096 | 35780 ft | 421 kts | 269° |
| 2026-05-09 13:51 | 52.28888 | 96.45509 | 35854 ft | 421 kts | 269° |
| 2026-05-09 13:51 | 52.28466 | 96.35931 | 35887 ft | 421 kts | 269° |
| 2026-05-09 13:52 | 52.28037 | 96.26374 | 35899 ft | 421 kts | 268° |
| 2026-05-09 13:52 | 52.27600 | 96.16800 | 35889 ft | 420 kts | 268° |
| 2026-05-09 13:53 | 52.27153 | 96.07149 | 35873 ft | 420 kts | 268° |
| 2026-05-09 13:53 | 52.26701 | 95.97579 | 35866 ft | 420 kts | 268° |
| 2026-05-09 13:54 | 52.26241 | 95.88022 | 35802 ft | 421 kts | 268° |
| 2026-05-09 13:54 | 52.25771 | 95.78434 | 35666 ft | 421 kts | 268° |
| 2026-05-09 13:55 | 52.25291 | 95.68800 | 35471 ft | 421 kts | 268° |
| 2026-05-09 13:55 | 52.25047 | 95.63964 | 35366 ft | 421 kts | 268° |
| 2026-05-09 13:55 | 52.24805 | 95.59195 | 35254 ft | 421 kts | 268° |
| 2026-05-09 13:56 | 52.24558 | 95.54391 | 35134 ft | 421 kts | 268° |
| 2026-05-09 13:56 | 52.24309 | 95.49570 | 34997 ft | 421 kts | 268° |
| 2026-05-09 13:56 | 52.24060 | 95.44788 | 34879 ft | 421 kts | 268° |
| 2026-05-09 13:56 | 52.23808 | 95.39983 | 34798 ft | 421 kts | 268° |
| 2026-05-09 13:57 | 52.23298 | 95.30382 | 34672 ft | 421 kts | 267° |
| 2026-05-09 13:57 | 52.22783 | 95.20830 | 34504 ft | 421 kts | 267° |
| 2026-05-09 13:58 | 52.22258 | 95.11250 | 34360 ft | 422 kts | 267° |
| 2026-05-09 13:58 | 52.21727 | 95.01672 | 34307 ft | 421 kts | 267° |
| 2026-05-09 13:59 | 52.21188 | 94.92104 | 34317 ft | 421 kts | 268° |
| 2026-05-09 13:59 | 52.20639 | 94.82504 | 34370 ft | 420 kts | 268° |
| 2026-05-09 14:00 | 52.20178 | 94.74541 | 34424 ft | 419 kts | 268° |
| 2026-05-09 14:00 | 52.19526 | 94.63447 | 34540 ft | 417 kts | 268° |
| 2026-05-09 14:01 | 52.18958 | 94.53919 | 34669 ft | 416 kts | 268° |
| 2026-05-09 14:01 | 52.18397 | 94.44640 | 34783 ft | 415 kts | 268° |
| 2026-05-09 14:02 | 52.17818 | 94.35188 | 34794 ft | 414 kts | 268° |
| 2026-05-09 14:02 | 52.17234 | 94.25793 | 34771 ft | 413 kts | 268° |
| 2026-05-09 14:03 | 52.16647 | 94.16441 | 34751 ft | 412 kts | 268° |
| 2026-05-09 14:03 | 52.16052 | 94.07078 | 34771 ft | 411 kts | 268° |
| 2026-05-09 14:04 | 52.15453 | 93.97780 | 34822 ft | 411 kts | 268° |
| 2026-05-09 14:04 | 52.14838 | 93.88522 | 34871 ft | 411 kts | 267° |
| 2026-05-09 14:05 | 52.14108 | 93.79273 | 34914 ft | 411 kts | 266° |
| 2026-05-09 14:05 | 52.13355 | 93.69972 | 34961 ft | 410 kts | 267° |
| 2026-05-09 14:06 | 52.12606 | 93.60729 | 35066 ft | 410 kts | 267° |
| 2026-05-09 14:06 | 52.11850 | 93.51438 | 35178 ft | 410 kts | 266° |
| 2026-05-09 14:07 | 52.11086 | 93.42166 | 35192 ft | 410 kts | 266° |
| 2026-05-09 14:07 | 52.10317 | 93.32911 | 35031 ft | 411 kts | 266° |
| 2026-05-09 14:08 | 52.09541 | 93.23640 | 34901 ft | 411 kts | 265° |
| 2026-05-09 14:08 | 52.08760 | 93.14404 | 34880 ft | 411 kts | 265° |
| 2026-05-09 14:09 | 52.08012 | 93.05638 | 34963 ft | 411 kts | 265° |
| 2026-05-09 14:09 | 52.07214 | 92.96371 | 35097 ft | 411 kts | 265° |
| 2026-05-09 14:10 | 52.06410 | 92.87118 | 34912 ft | 411 kts | 265° |
| 2026-05-09 14:10 | 52.06004 | 92.82481 | 34822 ft | 411 kts | 265° |
| 2026-05-09 14:11 | 52.05193 | 92.73276 | 34648 ft | 411 kts | 265° |
| 2026-05-09 14:11 | 52.04371 | 92.64035 | 34580 ft | 410 kts | 265° |
| 2026-05-09 14:12 | 52.03546 | 92.54853 | 34639 ft | 410 kts | 265° |
| 2026-05-09 14:12 | 52.02708 | 92.45606 | 34724 ft | 409 kts | 265° |
| 2026-05-09 14:13 | 52.01870 | 92.36451 | 34628 ft | 408 kts | 265° |
| 2026-05-09 14:14 | 51.98886 | 92.04454 | 34829 ft | 400 kts | 264° |
| 2026-05-09 14:15 | 51.98462 | 91.99996 | 35244 ft | 392 kts | 264° |
| 2026-05-09 14:15 | 51.98041 | 91.95586 | 35578 ft | 388 kts | 265° |
| 2026-05-09 14:15 | 51.97628 | 91.91263 | 35714 ft | 391 kts | 265° |
| 2026-05-09 14:16 | 51.96769 | 91.82303 | 35692 ft | 401 kts | 265° |
| 2026-05-09 14:16 | 51.96338 | 91.77839 | 35585 ft | 404 kts | 265° |
| 2026-05-09 14:16 | 51.95892 | 91.73249 | 35439 ft | 405 kts | 265° |
| 2026-05-09 14:16 | 51.95446 | 91.68685 | 35221 ft | 405 kts | 265° |
| 2026-05-09 14:17 | 51.95002 | 91.64161 | 35023 ft | 405 kts | 265° |
| 2026-05-09 14:17 | 51.94556 | 91.59630 | 34870 ft | 405 kts | 265° |
| 2026-05-09 14:17 | 51.94109 | 91.55100 | 34756 ft | 405 kts | 265° |
| 2026-05-09 14:18 | 51.93206 | 91.46027 | 34579 ft | 405 kts | 265° |
| 2026-05-09 14:18 | 51.92308 | 91.37034 | 34485 ft | 406 kts | 265° |
| 2026-05-09 14:19 | 51.91390 | 91.27937 | 34456 ft | 408 kts | 264° |
| 2026-05-09 14:19 | 51.90459 | 91.18786 | 34450 ft | 409 kts | 264° |
| 2026-05-09 14:20 | 51.89513 | 91.09565 | 34459 ft | 410 kts | 264° |
| 2026-05-09 14:20 | 51.88566 | 91.00417 | 34480 ft | 410 kts | 263° |
| 2026-05-09 14:21 | 51.87120 | 90.86594 | 34506 ft | 411 kts | 263° |
| 2026-05-09 14:21 | 51.86153 | 90.77432 | 34517 ft | 411 kts | 263° |
| 2026-05-09 14:22 | 51.85171 | 90.68203 | 34507 ft | 411 kts | 263° |
| 2026-05-09 14:22 | 51.84185 | 90.59006 | 34456 ft | 411 kts | 263° |
| 2026-05-09 14:23 | 51.83192 | 90.49818 | 34379 ft | 412 kts | 263° |
| 2026-05-09 14:23 | 51.82197 | 90.40659 | 34324 ft | 412 kts | 263° |
| 2026-05-09 14:24 | 51.81187 | 90.31455 | 34289 ft | 412 kts | 262° |
| 2026-05-09 14:24 | 51.80174 | 90.22285 | 34261 ft | 412 kts | 262° |
| 2026-05-09 14:25 | 51.79151 | 90.13099 | 34274 ft | 412 kts | 262° |
| 2026-05-09 14:25 | 51.78118 | 90.03895 | 34295 ft | 412 kts | 262° |
| 2026-05-09 14:26 | 51.77097 | 89.94849 | 34315 ft | 412 kts | 262° |
| 2026-05-09 14:26 | 51.76051 | 89.85658 | 34283 ft | 412 kts | 262° |
| 2026-05-09 14:27 | 51.75003 | 89.76519 | 34222 ft | 412 kts | 262° |
| 2026-05-09 14:27 | 51.73941 | 89.67317 | 34198 ft | 412 kts | 262° |
| 2026-05-09 14:28 | 51.72878 | 89.58165 | 34229 ft | 412 kts | 262° |
| 2026-05-09 14:28 | 51.71810 | 89.49058 | 34287 ft | 412 kts | 262° |
| 2026-05-09 14:29 | 51.70729 | 89.39915 | 34301 ft | 412 kts | 262° |
| 2026-05-09 14:29 | 51.69638 | 89.30765 | 34243 ft | 412 kts | 261° |
| 2026-05-09 14:30 | 51.68540 | 89.21605 | 34164 ft | 412 kts | 261° |
| 2026-05-09 14:30 | 51.67435 | 89.12444 | 34201 ft | 412 kts | 261° |
| 2026-05-09 14:31 | 51.66331 | 89.03359 | 34276 ft | 412 kts | 261° |
| 2026-05-09 14:31 | 51.65217 | 88.94241 | 34389 ft | 412 kts | 261° |
| 2026-05-09 14:32 | 51.64098 | 88.85143 | 34409 ft | 412 kts | 261° |
| 2026-05-09 14:32 | 51.62966 | 88.76007 | 34364 ft | 411 kts | 261° |
| 2026-05-09 14:33 | 51.61835 | 88.66940 | 34319 ft | 410 kts | 261° |
| 2026-05-09 14:33 | 51.60695 | 88.57857 | 34310 ft | 410 kts | 261° |
| 2026-05-09 14:34 | 51.59545 | 88.48782 | 34311 ft | 410 kts | 261° |
| 2026-05-09 14:34 | 51.58391 | 88.39722 | 34311 ft | 409 kts | 261° |
| 2026-05-09 14:35 | 51.57235 | 88.30704 | 34312 ft | 409 kts | 260° |
| 2026-05-09 14:35 | 51.56224 | 88.21649 | 34307 ft | 409 kts | 262° |
| 2026-05-09 14:36 | 51.55257 | 88.12551 | 34321 ft | 408 kts | 262° |
| 2026-05-09 14:36 | 51.54280 | 88.03490 | 34408 ft | 408 kts | 262° |
| 2026-05-09 14:37 | 51.53291 | 87.94450 | 34664 ft | 405 kts | 262° |
| 2026-05-09 14:37 | 51.52803 | 87.90027 | 34980 ft | 400 kts | 262° |
| 2026-05-09 14:37 | 51.52317 | 87.85628 | 35321 ft | 394 kts | 262° |
| 2026-05-09 14:38 | 51.51831 | 87.81253 | 35615 ft | 392 kts | 262° |
| 2026-05-09 14:38 | 51.51349 | 87.76914 | 35773 ft | 393 kts | 262° |
| 2026-05-09 14:38 | 51.50368 | 87.68143 | 35874 ft | 401 kts | 261° |
| 2026-05-09 14:39 | 51.49366 | 87.59259 | 35875 ft | 404 kts | 261° |
| 2026-05-09 14:39 | 51.48859 | 87.54797 | 35764 ft | 405 kts | 261° |
| 2026-05-09 14:39 | 51.48348 | 87.50308 | 35527 ft | 405 kts | 261° |
| 2026-05-09 14:40 | 51.47834 | 87.45811 | 35291 ft | 404 kts | 261° |
| 2026-05-09 14:40 | 51.47319 | 87.41321 | 35251 ft | 404 kts | 261° |
| 2026-05-09 14:40 | 51.46291 | 87.32408 | 35372 ft | 404 kts | 261° |
| 2026-05-09 14:41 | 51.45319 | 87.24034 | 35512 ft | 404 kts | 261° |
| 2026-05-09 14:41 | 51.44271 | 87.15062 | 35541 ft | 404 kts | 261° |
| 2026-05-09 14:42 | 51.43228 | 87.06195 | 35465 ft | 404 kts | 261° |
| 2026-05-09 14:42 | 51.42170 | 86.97268 | 35307 ft | 404 kts | 261° |
| 2026-05-09 14:43 | 51.41637 | 86.92795 | 35205 ft | 404 kts | 261° |
| 2026-05-09 14:43 | 51.41106 | 86.88351 | 35104 ft | 404 kts | 261° |
| 2026-05-09 14:43 | 51.40569 | 86.83870 | 35000 ft | 404 kts | 261° |
| 2026-05-09 14:43 | 51.40036 | 86.79441 | 34888 ft | 404 kts | 261° |
| 2026-05-09 14:44 | 51.39497 | 86.74972 | 34767 ft | 404 kts | 261° |
| 2026-05-09 14:44 | 51.38960 | 86.70535 | 34660 ft | 404 kts | 260° |
| 2026-05-09 14:44 | 51.37882 | 86.61675 | 34551 ft | 404 kts | 260° |
| 2026-05-09 14:45 | 51.36795 | 86.52802 | 34544 ft | 404 kts | 260° |
| 2026-05-09 14:45 | 51.35698 | 86.43909 | 34712 ft | 403 kts | 260° |
| 2026-05-09 14:46 | 51.35153 | 86.39516 | 34893 ft | 401 kts | 260° |
| 2026-05-09 14:46 | 51.34603 | 86.35098 | 35072 ft | 399 kts | 260° |
| 2026-05-09 14:46 | 51.34060 | 86.30746 | 35233 ft | 399 kts | 259° |
| 2026-05-09 14:46 | 51.33552 | 86.26683 | 35386 ft | 399 kts | 259° |
| 2026-05-09 14:47 | 51.32995 | 86.22243 | 35529 ft | 399 kts | 259° |
| 2026-05-09 14:47 | 51.32447 | 86.17893 | 35657 ft | 401 kts | 259° |
| 2026-05-09 14:47 | 51.31892 | 86.13494 | 35769 ft | 402 kts | 259° |
| 2026-05-09 14:47 | 51.31333 | 86.09086 | 35821 ft | 402 kts | 259° |
| 2026-05-09 14:48 | 51.30204 | 86.00216 | 35838 ft | 403 kts | 259° |
| 2026-05-09 14:48 | 51.29104 | 85.91635 | 35824 ft | 402 kts | 259° |
| 2026-05-09 14:49 | 51.27964 | 85.82792 | 35827 ft | 402 kts | 259° |
| 2026-05-09 14:49 | 51.26823 | 85.73988 | 35748 ft | 402 kts | 259° |
| 2026-05-09 14:50 | 51.25672 | 85.65183 | 35673 ft | 402 kts | 259° |
| 2026-05-09 14:50 | 51.24515 | 85.56397 | 35657 ft | 402 kts | 259° |
| 2026-05-09 14:51 | 51.23335 | 85.47564 | 35667 ft | 402 kts | 259° |
| 2026-05-09 14:51 | 51.22160 | 85.38791 | 35719 ft | 402 kts | 259° |
| 2026-05-09 14:52 | 51.20974 | 85.30002 | 35775 ft | 402 kts | 258° |
| 2026-05-09 14:52 | 51.19787 | 85.21250 | 35805 ft | 402 kts | 258° |
| 2026-05-09 14:53 | 51.18590 | 85.12464 | 35705 ft | 403 kts | 258° |
| 2026-05-09 14:53 | 51.17386 | 85.03669 | 35508 ft | 403 kts | 258° |
| 2026-05-09 14:54 | 51.16780 | 84.99259 | 35394 ft | 403 kts | 258° |
| 2026-05-09 14:54 | 51.16179 | 84.94902 | 35353 ft | 403 kts | 258° |
| 2026-05-09 14:54 | 51.14959 | 84.86100 | 35501 ft | 402 kts | 258° |
| 2026-05-09 14:55 | 51.13740 | 84.77362 | 35678 ft | 402 kts | 258° |
| 2026-05-09 14:55 | 51.12503 | 84.68551 | 35818 ft | 403 kts | 258° |
| 2026-05-09 14:56 | 51.11270 | 84.59812 | 35859 ft | 403 kts | 258° |
| 2026-05-09 14:56 | 51.10026 | 84.51050 | 35851 ft | 403 kts | 258° |
| 2026-05-09 14:57 | 51.08772 | 84.42262 | 35811 ft | 403 kts | 258° |
| 2026-05-09 14:57 | 51.07509 | 84.33461 | 35687 ft | 403 kts | 257° |
| 2026-05-09 14:58 | 51.06250 | 84.24747 | 35514 ft | 404 kts | 257° |
| 2026-05-09 14:58 | 51.04974 | 84.15959 | 35510 ft | 404 kts | 257° |
| 2026-05-09 14:59 | 51.03692 | 84.07175 | 35683 ft | 404 kts | 257° |
| 2026-05-09 14:59 | 51.02402 | 83.98396 | 35849 ft | 404 kts | 257° |
| 2026-05-09 15:00 | 51.01112 | 83.89661 | 35858 ft | 403 kts | 258° |
| 2026-05-09 15:00 | 51.00460 | 83.85261 | 35757 ft | 403 kts | 258° |
| 2026-05-09 15:00 | 50.99812 | 83.80892 | 35581 ft | 403 kts | 257° |
| 2026-05-09 15:01 | 50.98506 | 83.72141 | 35096 ft | 404 kts | 257° |
| 2026-05-09 15:01 | 50.97740 | 83.67757 | 34963 ft | 405 kts | 252° |
| 2026-05-09 15:02 | 50.95402 | 83.59564 | 34939 ft | 408 kts | 242° |
| 2026-05-09 15:02 | 50.92049 | 83.52187 | 35060 ft | 412 kts | 231° |
| 2026-05-09 15:03 | 50.87780 | 83.45962 | 35241 ft | 417 kts | 221° |
| 2026-05-09 15:03 | 50.85433 | 83.43166 | 35353 ft | 417 kts | 221° |
| 2026-05-09 15:03 | 50.83077 | 83.40392 | 35478 ft | 417 kts | 221° |
| 2026-05-09 15:03 | 50.80698 | 83.37606 | 35606 ft | 417 kts | 221° |
| 2026-05-09 15:04 | 50.78345 | 83.34856 | 35723 ft | 417 kts | 220° |
| 2026-05-09 15:06 | 50.59473 | 83.12991 | 35863 ft | 417 kts | 219° |
| 2026-05-09 15:06 | 50.54693 | 83.07663 | 35858 ft | 417 kts | 219° |
| 2026-05-09 15:07 | 50.49916 | 83.02345 | 35854 ft | 418 kts | 219° |
| 2026-05-09 15:07 | 50.45137 | 82.97028 | 35848 ft | 418 kts | 219° |
| 2026-05-09 15:08 | 50.40336 | 82.91698 | 35845 ft | 418 kts | 219° |
| 2026-05-09 15:08 | 50.33155 | 82.83746 | 35844 ft | 417 kts | 219° |
| 2026-05-09 15:10 | 50.14078 | 82.62755 | 35847 ft | 417 kts | 219° |
| 2026-05-09 15:11 | 50.09400 | 82.57636 | 35842 ft | 417 kts | 219° |
| 2026-05-09 15:11 | 50.04623 | 82.52423 | 35835 ft | 417 kts | 219° |
| 2026-05-09 15:12 | 49.99792 | 82.47264 | 35828 ft | 418 kts | 218° |
| 2026-05-09 15:12 | 49.94941 | 82.42197 | 35831 ft | 418 kts | 218° |
| 2026-05-09 15:13 | 49.90080 | 82.37118 | 35834 ft | 419 kts | 218° |
| 2026-05-09 15:13 | 49.85219 | 82.32046 | 35836 ft | 419 kts | 217° |
| 2026-05-09 15:14 | 49.80342 | 82.26965 | 35836 ft | 419 kts | 217° |
| 2026-05-09 15:14 | 49.75471 | 82.21901 | 35837 ft | 419 kts | 217° |
| 2026-05-09 15:15 | 49.70608 | 82.16856 | 35840 ft | 418 kts | 217° |
| 2026-05-09 15:15 | 49.65750 | 82.11830 | 35844 ft | 418 kts | 217° |
| 2026-05-09 15:16 | 49.60845 | 82.06767 | 35763 ft | 418 kts | 217° |
| 2026-05-09 15:16 | 49.58414 | 82.04264 | 35354 ft | 417 kts | 217° |
| 2026-05-09 15:16 | 49.56017 | 82.01801 | 35580 ft | 412 kts | 218° |
| 2026-05-09 15:17 | 49.53582 | 81.99323 | 35853 ft | 413 kts | 220° |
| 2026-05-09 15:17 | 49.51196 | 81.96875 | 35901 ft | 418 kts | 221° |
| 2026-05-09 15:17 | 49.46271 | 81.91782 | 35893 ft | 427 kts | 221° |
| 2026-05-09 15:18 | 49.41277 | 81.86708 | 35889 ft | 430 kts | 220° |
| 2026-05-09 15:18 | 49.36207 | 81.81712 | 35884 ft | 430 kts | 220° |
| 2026-05-09 15:19 | 49.31171 | 81.76754 | 35882 ft | 429 kts | 220° |
| 2026-05-09 15:19 | 49.26105 | 81.71769 | 35883 ft | 431 kts | 220° |
| 2026-05-09 15:20 | 49.18507 | 81.64314 | 35880 ft | 430 kts | 220° |
| 2026-05-09 15:21 | 49.13440 | 81.59352 | 35882 ft | 430 kts | 220° |
| 2026-05-09 15:21 | 49.08343 | 81.54377 | 35885 ft | 431 kts | 219° |
| 2026-05-09 15:22 | 49.03370 | 81.49539 | 35885 ft | 430 kts | 220° |
| 2026-05-09 15:22 | 48.98252 | 81.44565 | 35890 ft | 431 kts | 219° |
| 2026-05-09 15:23 | 48.93173 | 81.39642 | 35896 ft | 432 kts | 220° |
| 2026-05-09 15:23 | 48.88084 | 81.34724 | 35902 ft | 432 kts | 219° |
| 2026-05-09 15:24 | 48.82939 | 81.29760 | 35912 ft | 433 kts | 219° |
| 2026-05-09 15:24 | 48.77807 | 81.24829 | 35921 ft | 433 kts | 219° |
| 2026-05-09 15:25 | 48.72649 | 81.19879 | 35926 ft | 434 kts | 219° |
| 2026-05-09 15:25 | 48.67538 | 81.14985 | 35926 ft | 433 kts | 219° |
| 2026-05-09 15:26 | 48.59784 | 81.07587 | 36259 ft | 436 kts | 219° |
| 2026-05-09 15:26 | 48.57218 | 81.05144 | 36055 ft | 435 kts | 219° |
| 2026-05-09 15:26 | 48.54625 | 81.02676 | 35975 ft | 433 kts | 219° |
| 2026-05-09 15:27 | 48.49494 | 80.97808 | 35942 ft | 433 kts | 219° |
| 2026-05-09 15:27 | 48.44304 | 80.92896 | 35945 ft | 436 kts | 219° |
| 2026-05-09 15:28 | 48.39132 | 80.88014 | 35944 ft | 436 kts | 219° |
| 2026-05-09 15:28 | 48.33933 | 80.83114 | 35943 ft | 436 kts | 219° |
| 2026-05-09 15:29 | 48.28749 | 80.78239 | 35938 ft | 435 kts | 219° |
| 2026-05-09 15:29 | 48.23569 | 80.73386 | 35931 ft | 436 kts | 219° |
| 2026-05-09 15:30 | 48.18386 | 80.68531 | 35936 ft | 437 kts | 219° |
| 2026-05-09 15:30 | 48.13177 | 80.63673 | 35932 ft | 437 kts | 219° |
| 2026-05-09 15:31 | 48.07959 | 80.58816 | 35928 ft | 435 kts | 219° |
| 2026-05-09 15:31 | 48.02730 | 80.53957 | 35921 ft | 436 kts | 219° |
| 2026-05-09 15:32 | 47.97501 | 80.49111 | 35916 ft | 436 kts | 219° |
| 2026-05-09 15:32 | 47.92404 | 80.44192 | 35915 ft | 431 kts | 223° |
| 2026-05-09 15:33 | 47.87560 | 80.38750 | 35919 ft | 431 kts | 225° |
| 2026-05-09 15:33 | 47.82766 | 80.33319 | 35932 ft | 429 kts | 224° |
| 2026-05-09 15:34 | 47.77997 | 80.27940 | 35936 ft | 430 kts | 224° |
| 2026-05-09 15:34 | 47.73243 | 80.22575 | 35932 ft | 429 kts | 224° |
| 2026-05-09 15:35 | 47.68419 | 80.17139 | 35928 ft | 428 kts | 224° |
| 2026-05-09 15:35 | 47.63644 | 80.11779 | 35923 ft | 427 kts | 224° |
| 2026-05-09 15:36 | 47.58847 | 80.06406 | 35918 ft | 425 kts | 224° |
| 2026-05-09 15:36 | 47.54101 | 80.01097 | 35914 ft | 425 kts | 224° |
| 2026-05-09 15:37 | 47.49308 | 79.95748 | 35904 ft | 426 kts | 224° |
| 2026-05-09 15:37 | 47.44625 | 79.90537 | 35905 ft | 426 kts | 224° |
| 2026-05-09 15:38 | 47.39847 | 79.85233 | 35899 ft | 425 kts | 224° |
| 2026-05-09 15:38 | 47.35103 | 79.79981 | 35883 ft | 426 kts | 224° |
| 2026-05-09 15:39 | 47.30325 | 79.74701 | 35876 ft | 428 kts | 224° |
| 2026-05-09 15:39 | 47.25540 | 79.69425 | 35874 ft | 428 kts | 224° |
| 2026-05-09 15:40 | 47.20747 | 79.64156 | 35867 ft | 428 kts | 224° |
| 2026-05-09 15:40 | 47.15966 | 79.58904 | 35867 ft | 428 kts | 223° |
| 2026-05-09 15:41 | 47.11187 | 79.53672 | 35870 ft | 428 kts | 223° |
| 2026-05-09 15:41 | 47.06366 | 79.48405 | 35864 ft | 428 kts | 223° |
| 2026-05-09 15:42 | 47.01579 | 79.43183 | 35869 ft | 430 kts | 223° |
| 2026-05-09 15:42 | 46.96766 | 79.37950 | 35870 ft | 431 kts | 223° |
| 2026-05-09 15:43 | 46.91927 | 79.32697 | 35867 ft | 431 kts | 223° |
| 2026-05-09 15:43 | 46.87088 | 79.27454 | 35864 ft | 432 kts | 223° |
| 2026-05-09 15:44 | 46.82364 | 79.22349 | 35869 ft | 430 kts | 222° |
| 2026-05-09 15:44 | 46.77519 | 79.17127 | 35866 ft | 430 kts | 222° |
| 2026-05-09 15:45 | 46.72697 | 79.11942 | 35866 ft | 431 kts | 222° |
| 2026-05-09 15:45 | 46.67856 | 79.06747 | 35864 ft | 432 kts | 222° |
| 2026-05-09 15:46 | 46.63002 | 79.01549 | 35862 ft | 431 kts | 222° |
| 2026-05-09 15:46 | 46.58134 | 78.96349 | 35862 ft | 433 kts | 222° |
| 2026-05-09 15:47 | 46.53281 | 78.91181 | 35861 ft | 432 kts | 222° |
| 2026-05-09 15:47 | 46.48433 | 78.86025 | 35861 ft | 432 kts | 222° |
| 2026-05-09 15:48 | 46.43558 | 78.80849 | 35862 ft | 431 kts | 223° |
| 2026-05-09 15:48 | 46.38697 | 78.75706 | 35866 ft | 431 kts | 222° |
| 2026-05-09 15:49 | 46.33843 | 78.70577 | 35865 ft | 432 kts | 223° |
| 2026-05-09 15:49 | 46.29099 | 78.65252 | 35857 ft | 427 kts | 227° |
| 2026-05-09 15:50 | 46.24673 | 78.59500 | 35853 ft | 424 kts | 228° |
| 2026-05-09 15:50 | 46.20240 | 78.53718 | 35853 ft | 426 kts | 228° |
| 2026-05-09 15:51 | 46.15822 | 78.47963 | 35845 ft | 426 kts | 228° |
| 2026-05-09 15:51 | 46.11354 | 78.42152 | 35844 ft | 427 kts | 228° |
| 2026-05-09 15:52 | 46.04665 | 78.33469 | 35843 ft | 427 kts | 227° |
| 2026-05-09 15:53 | 46.00204 | 78.27700 | 35845 ft | 428 kts | 227° |
| 2026-05-09 15:53 | 45.95733 | 78.21931 | 35846 ft | 427 kts | 227° |
| 2026-05-09 15:54 | 45.91270 | 78.16184 | 35847 ft | 427 kts | 227° |
| 2026-05-09 15:54 | 45.86806 | 78.10444 | 35849 ft | 427 kts | 227° |
| 2026-05-09 15:55 | 45.82325 | 78.04703 | 35851 ft | 428 kts | 227° |
| 2026-05-09 15:55 | 45.77877 | 77.99009 | 35848 ft | 426 kts | 227° |
| 2026-05-09 15:56 | 45.73400 | 77.93295 | 35834 ft | 426 kts | 227° |
| 2026-05-09 15:56 | 45.68916 | 77.87582 | 35845 ft | 426 kts | 227° |
| 2026-05-09 15:57 | 45.64460 | 77.81924 | 35862 ft | 425 kts | 227° |
| 2026-05-09 15:57 | 45.60104 | 77.76402 | 35860 ft | 425 kts | 227° |
| 2026-05-09 15:58 | 45.55646 | 77.70763 | 35860 ft | 426 kts | 227° |
| 2026-05-09 15:58 | 45.51174 | 77.65113 | 35859 ft | 426 kts | 227° |
| 2026-05-09 15:59 | 45.46674 | 77.59448 | 35856 ft | 425 kts | 227° |
| 2026-05-09 15:59 | 45.42242 | 77.53879 | 35855 ft | 425 kts | 227° |
| 2026-05-09 16:00 | 45.37787 | 77.48293 | 35848 ft | 424 kts | 227° |
| 2026-05-09 16:00 | 45.33310 | 77.42687 | 35847 ft | 423 kts | 227° |
| 2026-05-09 16:01 | 45.28862 | 77.37135 | 35849 ft | 424 kts | 228° |
| 2026-05-09 16:01 | 45.24367 | 77.31533 | 35847 ft | 425 kts | 227° |
| 2026-05-09 16:02 | 45.19882 | 77.25959 | 35849 ft | 425 kts | 227° |
| 2026-05-09 16:02 | 45.13137 | 77.17596 | 35851 ft | 426 kts | 227° |
| 2026-05-09 16:03 | 45.08638 | 77.12035 | 35852 ft | 427 kts | 227° |
| 2026-05-09 16:03 | 45.04160 | 77.06509 | 35849 ft | 426 kts | 227° |
| 2026-05-09 16:04 | 44.99646 | 77.00956 | 35841 ft | 427 kts | 228° |
| 2026-05-09 16:04 | 44.95143 | 76.95422 | 35837 ft | 428 kts | 227° |